createdAt,value
2019-05-23T00:00:30.848Z,61.57
2019-05-23T00:03:02.400Z,61.30
2019-05-23T00:05:36.642Z,61.53
2019-05-23T00:08:08.259Z,61.50
2019-05-23T00:10:42.647Z,60.93
2019-05-23T00:13:14.366Z,61.10
2019-05-23T00:15:45.668Z,60.37
2019-05-23T00:18:20.846Z,59.07
2019-05-23T00:20:49.577Z,60.53
2019-05-23T00:23:20.158Z,63.23
2019-05-23T00:25:52.099Z,61.23
2019-05-23T00:28:23.020Z,60.50
2019-05-23T00:30:54.432Z,60.10
2019-05-23T00:33:27.190Z,59.40
2019-05-23T00:35:59.553Z,61.53
2019-05-23T00:38:31.595Z,59.93
2019-05-23T00:41:05.705Z,58.93
2019-05-23T00:43:36.195Z,61.93
2019-05-23T00:46:07.243Z,61.43
2019-05-23T00:48:38.822Z,61.83
2019-05-23T00:51:09.830Z,58.53
2019-05-23T00:53:39.514Z,61.33
2019-05-23T00:56:11.425Z,60.40
2019-05-23T00:58:41.203Z,65.10
2019-05-23T01:01:11.582Z,62.23
2019-05-23T01:03:41.560Z,61.47
2019-05-23T01:06:13.983Z,58.20
2019-05-23T01:08:44.427Z,58.50
2019-05-23T01:11:16.341Z,59.00
2019-05-23T01:13:46.622Z,60.67
2019-05-23T01:16:16.983Z,63.30
2019-05-23T01:18:47.132Z,59.07
2019-05-23T01:21:34.945Z,58.43
2019-05-23T01:24:06.284Z,60.23
2019-05-23T01:26:36.543Z,58.63
2019-05-23T01:29:07.674Z,58.20
2019-05-23T01:31:39.847Z,61.40
2019-05-23T01:34:13.146Z,60.13
2019-05-23T01:36:43.692Z,59.40
2019-05-23T01:39:13.965Z,59.53
2019-05-23T01:41:44.247Z,59.20
2019-05-23T01:44:14.887Z,58.80
2019-05-23T01:46:44.984Z,59.20
2019-05-23T01:49:15.370Z,59.87
2019-05-23T01:51:45.633Z,58.87
2019-05-23T01:54:16.105Z,58.00
2019-05-23T01:56:46.455Z,57.17
2019-05-23T01:59:16.787Z,57.93
2019-05-23T02:01:47.062Z,56.00
2019-05-23T02:04:17.731Z,57.23
2019-05-23T02:06:48.080Z,58.57
2019-05-23T02:09:19.281Z,59.27
2019-05-23T02:11:49.243Z,58.37
2019-05-23T02:14:19.377Z,60.00
2019-05-23T02:16:49.648Z,57.80
2019-05-23T02:19:20.386Z,57.17
2019-05-23T02:21:50.409Z,58.93
2019-05-23T02:24:22.440Z,56.70
2019-05-23T02:26:52.665Z,58.20
2019-05-23T02:29:22.961Z,56.20
2019-05-23T02:31:53.726Z,58.30
2019-05-23T02:34:24.580Z,57.53
2019-05-23T02:36:57.604Z,57.70
2019-05-23T02:39:41.527Z,59.70
2019-05-23T02:42:18.564Z,57.67
2019-05-23T02:44:49.909Z,58.97
2019-05-23T02:47:23.505Z,58.47
2019-05-23T02:49:54.831Z,58.10
2019-05-23T02:52:39.108Z,58.50
2019-05-23T02:55:35.319Z,60.23
2019-05-23T02:58:18.977Z,57.77
2019-05-23T03:01:02.137Z,60.00
2019-05-23T03:03:33.193Z,56.70
2019-05-23T03:06:05.122Z,60.17
2019-05-23T03:08:37.107Z,56.80
2019-05-23T03:11:26.997Z,57.03
2019-05-23T03:14:01.797Z,56.27
2019-05-23T03:16:34.442Z,55.60
2019-05-23T03:19:28.206Z,55.57
2019-05-23T03:22:03.348Z,57.40
2019-05-23T03:24:35.351Z,58.17
2019-05-23T03:27:11.543Z,55.23
2019-05-23T03:29:41.790Z,57.03
2019-05-23T03:32:38.172Z,56.07
2019-05-23T03:35:09.336Z,56.17
2019-05-23T03:37:41.051Z,59.33
2019-05-23T03:40:11.013Z,58.37
2019-05-23T03:42:42.700Z,58.80
2019-05-23T03:45:18.513Z,57.23
2019-05-23T03:47:49.277Z,59.20
2019-05-23T03:50:21.950Z,56.67
2019-05-23T03:52:51.891Z,58.43
2019-05-23T03:55:24.634Z,55.10
2019-05-23T03:57:56.277Z,57.40
2019-05-23T04:00:28.523Z,57.30
2019-05-23T04:03:00.080Z,62.97
2019-05-23T04:05:31.529Z,59.77
2019-05-23T04:08:01.857Z,57.67
2019-05-23T04:10:32.024Z,57.63
2019-05-23T04:13:02.059Z,55.97
2019-05-23T04:15:33.364Z,55.80
2019-05-23T04:18:03.842Z,58.13
2019-05-23T04:20:34.101Z,55.77
2019-05-23T04:23:04.969Z,57.30
2019-05-23T04:25:34.907Z,57.97
2019-05-23T04:28:05.255Z,58.63
2019-05-23T04:30:35.451Z,56.43
2019-05-23T04:33:05.810Z,57.20
2019-05-23T04:35:36.033Z,59.17
2019-05-23T04:38:06.291Z,55.77
2019-05-23T04:40:37.132Z,56.27
2019-05-23T04:43:07.196Z,55.50
2019-05-23T04:45:37.244Z,56.43
2019-05-23T04:48:08.053Z,57.23
2019-05-23T04:50:38.812Z,57.10
2019-05-23T04:53:08.589Z,56.17
2019-05-23T04:55:39.675Z,57.53
2019-05-23T04:58:10.194Z,56.80
2019-05-23T05:00:40.398Z,56.60
2019-05-23T05:03:11.229Z,57.13
2019-05-23T05:05:41.802Z,64.83
2019-05-23T05:08:12.265Z,53.77
2019-05-23T05:10:43.162Z,55.17
2019-05-23T05:13:13.120Z,55.67
2019-05-23T05:15:43.664Z,55.13
2019-05-23T05:18:14.107Z,57.83
2019-05-23T05:20:44.199Z,56.47
2019-05-23T05:23:16.062Z,54.10
2019-05-23T05:25:45.710Z,58.27
2019-05-23T05:28:15.783Z,51.03
2019-05-23T05:30:45.829Z,49.73
2019-05-23T05:33:16.081Z,51.00
2019-05-23T05:35:46.647Z,53.60
2019-05-23T05:38:17.542Z,52.40
2019-05-23T05:40:47.415Z,53.07
2019-05-23T05:43:18.552Z,52.50
2019-05-23T05:45:48.347Z,53.50
2019-05-23T05:48:18.393Z,52.53
2019-05-23T05:50:48.857Z,52.47
2019-05-23T05:53:19.013Z,61.77
2019-05-23T05:55:49.658Z,57.20
2019-05-23T05:58:19.288Z,51.27
2019-05-23T06:00:52.429Z,53.47
2019-05-23T06:03:22.283Z,57.70
2019-05-23T06:05:54.403Z,56.83
2019-05-23T06:08:25.661Z,61.60
2019-05-23T06:10:55.910Z,57.07
2019-05-23T06:13:26.753Z,54.53
2019-05-23T06:15:58.255Z,52.97
2019-05-23T06:18:28.374Z,53.43
2019-05-23T06:20:59.520Z,54.87
2019-05-23T06:23:33.419Z,56.93
2019-05-23T06:26:03.793Z,53.47
2019-05-23T06:28:33.953Z,55.27
2019-05-23T06:31:04.624Z,54.40
2019-05-23T06:33:35.702Z,55.93
2019-05-23T06:36:06.498Z,54.60
2019-05-23T06:38:37.283Z,54.60
2019-05-23T06:41:08.015Z,55.47
2019-05-23T06:43:39.306Z,54.67
2019-05-23T06:46:09.455Z,57.27
2019-05-23T06:48:39.703Z,53.57
2019-05-23T06:51:10.103Z,55.93
2019-05-23T06:53:40.680Z,54.63
2019-05-23T06:56:13.533Z,55.50
2019-05-23T06:58:43.386Z,55.90
2019-05-23T07:01:13.084Z,56.60
2019-05-23T07:03:44.021Z,55.33
2019-05-23T07:06:19.613Z,58.37
2019-05-23T07:08:49.487Z,54.40
2019-05-23T07:11:23.017Z,57.10
2019-05-23T07:13:53.185Z,56.63
2019-05-23T07:16:23.758Z,57.13
2019-05-23T07:18:53.860Z,55.50
2019-05-23T07:21:24.211Z,55.90
2019-05-23T07:23:54.079Z,56.90
2019-05-23T07:26:24.042Z,58.47
2019-05-23T07:28:54.597Z,57.33
2019-05-23T07:31:24.249Z,55.27
2019-05-23T07:34:01.865Z,55.27
2019-05-23T07:36:25.714Z,56.03
2019-05-23T07:38:55.374Z,56.70
2019-05-23T07:41:25.615Z,56.30
2019-05-23T07:43:56.569Z,56.33
2019-05-23T07:46:26.539Z,59.33
2019-05-23T07:48:56.700Z,57.17
2019-05-23T07:51:29.658Z,55.40
2019-05-23T07:54:08.792Z,57.73
2019-05-23T07:56:43.040Z,59.57
2019-05-23T07:59:13.216Z,58.87
2019-05-23T08:01:47.327Z,58.63
2019-05-23T08:04:22.109Z,58.07
2019-05-23T08:06:49.717Z,59.67
2019-05-23T08:09:19.880Z,57.63
2019-05-23T08:11:50.223Z,58.43
2019-05-23T08:14:20.365Z,57.13
2019-05-23T08:16:51.270Z,56.80
2019-05-23T08:19:21.121Z,58.63
2019-05-23T08:21:50.790Z,59.60
2019-05-23T08:24:21.037Z,58.13
2019-05-23T08:26:51.184Z,60.40
2019-05-23T08:29:25.944Z,58.37
2019-05-23T08:31:54.475Z,57.33
2019-05-23T08:34:40.169Z,57.83
2019-05-23T08:36:57.432Z,59.57
2019-05-23T08:39:27.813Z,59.60
2019-05-23T08:41:57.603Z,58.23
2019-05-23T08:44:27.512Z,60.63
2019-05-23T08:46:57.434Z,61.23
2019-05-23T08:49:28.205Z,61.10
2019-05-23T08:51:58.771Z,59.97
2019-05-23T08:54:28.932Z,59.07
2019-05-23T08:57:00.052Z,59.20
2019-05-23T08:59:32.072Z,59.50
2019-05-23T09:02:04.554Z,57.97
2019-05-23T09:04:34.425Z,58.30
2019-05-23T09:07:05.879Z,59.47
2019-05-23T09:09:36.746Z,59.63
2019-05-23T09:12:06.858Z,59.83
2019-05-23T09:14:37.405Z,59.13
2019-05-23T09:17:08.731Z,60.33
2019-05-23T09:19:38.910Z,60.50
2019-05-23T09:22:08.999Z,60.53
2019-05-23T09:24:38.803Z,61.43
2019-05-23T09:27:10.504Z,61.93
2019-05-23T09:29:41.010Z,60.40
2019-05-23T09:32:12.144Z,60.73
2019-05-23T09:34:42.298Z,60.00
2019-05-23T09:37:13.289Z,60.50
2019-05-23T09:39:43.230Z,60.33
2019-05-23T09:42:14.087Z,60.67
2019-05-23T09:44:43.774Z,60.73
2019-05-23T09:47:13.778Z,61.80
2019-05-23T09:49:53.630Z,62.30
2019-05-23T09:52:16.659Z,61.83
2019-05-23T09:54:46.662Z,60.90
2019-05-23T09:57:17.313Z,61.03
2019-05-23T09:59:47.022Z,62.60
2019-05-23T10:02:17.222Z,60.27
2019-05-23T10:04:46.949Z,60.63
2019-05-23T10:07:17.011Z,61.80
2019-05-23T10:09:47.007Z,66.40
2019-05-23T10:12:16.962Z,64.80
2019-05-23T10:14:46.747Z,66.50
2019-05-23T10:17:16.723Z,64.40
2019-05-23T10:19:46.688Z,65.90
2019-05-23T10:22:19.224Z,65.03
2019-05-23T10:24:48.918Z,62.37
2019-05-23T10:27:18.843Z,64.43
2019-05-23T10:29:50.007Z,64.40
2019-05-23T10:32:20.430Z,62.77
2019-05-23T10:34:50.113Z,60.33
2019-05-23T10:37:20.295Z,60.50
2019-05-23T10:39:54.606Z,62.63
2019-05-23T10:42:25.953Z,60.87
2019-05-23T10:44:55.619Z,59.93
2019-05-23T10:47:26.395Z,61.67
2019-05-23T10:49:56.351Z,60.27
2019-05-23T10:52:26.083Z,61.60
2019-05-23T10:54:55.784Z,62.40
2019-05-23T10:57:25.772Z,63.50
2019-05-23T10:59:55.484Z,62.43
2019-05-23T11:02:27.322Z,62.00
2019-05-23T11:05:11.621Z,60.50
2019-05-23T11:07:33.069Z,62.37
2019-05-23T11:10:04.611Z,59.33
2019-05-23T11:12:34.552Z,60.00
2019-05-23T11:15:06.695Z,60.53
2019-05-23T11:17:37.345Z,60.33
2019-05-23T11:20:13.802Z,61.70
2019-05-23T11:22:45.155Z,65.33
2019-05-23T11:25:17.823Z,59.90
2019-05-23T11:27:47.811Z,60.70
2019-05-23T11:30:20.033Z,61.53
2019-05-23T11:32:50.089Z,60.13
2019-05-23T11:35:19.917Z,63.00
2019-05-23T11:37:52.090Z,61.27
2019-05-23T11:40:23.221Z,61.63
2019-05-23T11:42:53.125Z,68.87
2019-05-23T11:45:25.286Z,61.73
2019-05-23T11:47:55.454Z,62.57
2019-05-23T11:50:25.734Z,62.53
2019-05-23T11:52:56.255Z,66.40
2019-05-23T11:55:26.356Z,63.90
2019-05-23T11:57:59.098Z,61.67
2019-05-23T12:01:20.202Z,62.97
2019-05-23T12:03:44.650Z,61.30
2019-05-23T12:06:14.877Z,62.70
2019-05-23T12:08:44.860Z,64.83
2019-05-23T12:11:15.084Z,62.57
2019-05-23T12:13:44.774Z,63.87
2019-05-23T12:16:16.879Z,60.37
2019-05-23T12:18:46.995Z,64.30
2019-05-23T12:21:17.421Z,65.03
2019-05-23T12:23:47.340Z,64.30
2019-05-23T12:26:17.025Z,64.67
2019-05-23T12:28:47.007Z,65.57
2019-05-23T12:31:17.546Z,64.23
2019-05-23T12:33:47.542Z,65.63
2019-05-23T12:36:17.935Z,65.40
2019-05-23T12:38:47.580Z,62.93
2019-05-23T12:41:19.057Z,64.00
2019-05-23T12:43:49.217Z,63.90
2019-05-23T12:46:19.030Z,64.67
2019-05-23T12:48:50.346Z,66.50
2019-05-23T12:51:23.273Z,63.53
2019-05-23T12:53:53.422Z,65.57
2019-05-23T12:56:25.368Z,66.90
2019-05-23T12:58:55.062Z,64.07
2019-05-23T13:01:25.220Z,65.33
2019-05-23T13:03:57.182Z,66.77
2019-05-23T13:06:28.191Z,63.57
2019-05-23T13:08:58.542Z,63.03
2019-05-23T13:11:28.423Z,66.33
2019-05-23T13:13:58.067Z,64.83
2019-05-23T13:16:28.580Z,64.63
2019-05-23T13:18:58.249Z,63.10
2019-05-23T13:21:28.418Z,62.63
2019-05-23T13:23:58.605Z,63.07
2019-05-23T13:26:28.541Z,63.63
2019-05-23T13:29:01.505Z,64.77
2019-05-23T13:31:32.051Z,64.00
2019-05-23T13:34:03.395Z,64.83
2019-05-23T13:36:33.689Z,61.87
2019-05-23T13:39:04.692Z,62.47
2019-05-23T13:41:35.787Z,67.17
2019-05-23T13:44:06.273Z,66.23
2019-05-23T13:46:36.529Z,64.43
2019-05-23T13:49:06.713Z,66.83
2019-05-23T13:51:36.437Z,65.90
2019-05-23T13:54:06.714Z,66.63
2019-05-23T13:56:36.692Z,66.13
2019-05-23T13:59:06.492Z,70.03
2019-05-23T14:01:37.129Z,67.57
2019-05-23T14:04:07.625Z,70.80
2019-05-23T14:06:37.387Z,69.60
2019-05-23T14:09:09.341Z,68.37
2019-05-23T14:11:39.788Z,72.03
2019-05-23T14:14:09.711Z,70.63
2019-05-23T14:16:41.639Z,69.93
2019-05-23T14:19:11.493Z,70.90
2019-05-23T14:21:41.183Z,70.73
2019-05-23T14:24:11.112Z,70.67
2019-05-23T14:26:44.181Z,71.17
2019-05-23T14:29:15.390Z,70.60
2019-05-23T14:31:58.722Z,72.53
2019-05-23T14:34:29.477Z,74.70
2019-05-23T14:37:01.344Z,72.33
2019-05-23T14:39:33.615Z,71.93
2019-05-23T14:42:16.557Z,71.03
2019-05-23T14:44:46.405Z,74.53
2019-05-23T14:47:19.622Z,74.27
2019-05-23T14:50:07.062Z,76.73
2019-05-23T14:52:41.778Z,77.63
2019-05-23T14:55:13.821Z,76.00
2019-05-23T14:57:43.767Z,75.32
2019-05-23T15:00:14.207Z,76.55
2019-05-23T15:02:44.482Z,79.07
2019-05-23T15:05:14.505Z,75.45
2019-05-23T15:07:44.377Z,78.47
2019-05-23T15:10:15.442Z,76.23
2019-05-23T15:12:45.403Z,74.53
2019-05-23T15:15:15.388Z,75.33
2019-05-23T15:17:45.095Z,75.85
2019-05-23T15:20:16.321Z,77.37
2019-05-23T15:22:46.000Z,79.15
2019-05-23T15:25:17.088Z,75.90
2019-05-23T15:27:47.072Z,75.92
2019-05-23T15:30:17.805Z,78.65
2019-05-23T15:32:48.705Z,76.85
2019-05-23T15:35:18.561Z,74.50
2019-05-23T15:37:48.709Z,78.20
2019-05-23T15:40:19.398Z,77.40
2019-05-23T15:42:49.084Z,74.33
2019-05-23T15:45:19.051Z,77.23
2019-05-23T15:47:48.981Z,73.57
2019-05-23T15:50:26.012Z,74.23
2019-05-23T15:52:57.341Z,74.30
2019-05-23T15:55:38.019Z,76.47
2019-05-23T15:58:22.316Z,73.87
2019-05-23T16:01:09.532Z,75.67
2019-05-23T16:03:46.744Z,75.53
2019-05-23T16:06:21.057Z,73.90
2019-05-23T16:08:51.120Z,76.17
2019-05-23T16:11:21.683Z,75.97
2019-05-23T16:13:51.403Z,76.30
2019-05-23T16:16:21.428Z,75.32
2019-05-23T16:18:51.668Z,74.07
2019-05-23T16:21:21.536Z,76.57
2019-05-23T16:23:51.528Z,78.40
2019-05-23T16:26:21.202Z,75.67
2019-05-23T16:28:50.884Z,77.07
2019-05-23T16:31:20.569Z,73.47
2019-05-23T16:33:50.340Z,72.33
2019-05-23T16:36:20.101Z,71.97
2019-05-23T16:38:50.954Z,72.87
2019-05-23T16:41:20.638Z,73.73
2019-05-23T16:43:50.771Z,74.50
2019-05-23T16:46:21.476Z,72.43
2019-05-23T16:48:51.624Z,72.30
2019-05-23T16:51:21.370Z,77.20
2019-05-23T16:53:51.723Z,73.67
2019-05-23T16:56:26.286Z,72.50
2019-05-23T16:58:57.404Z,71.17
2019-05-23T17:01:54.760Z,75.53
2019-05-23T17:04:14.790Z,73.60
2019-05-23T17:06:47.572Z,76.13
2019-05-23T17:09:36.672Z,74.80
2019-05-23T17:12:19.936Z,76.27
2019-05-23T17:14:52.036Z,75.43
2019-05-23T17:17:43.059Z,79.07
2019-05-23T17:19:59.762Z,74.27
2019-05-23T17:22:37.107Z,77.20
2019-05-23T17:25:22.408Z,74.50
2019-05-23T17:28:03.148Z,77.23
2019-05-23T17:30:37.179Z,78.30
2019-05-23T17:33:08.208Z,75.97
2019-05-23T17:35:40.035Z,75.67
2019-05-23T17:38:09.959Z,75.47
2019-05-23T17:40:39.924Z,75.73
2019-05-23T17:43:10.738Z,73.97
2019-05-23T17:45:41.291Z,74.60
2019-05-23T17:48:11.328Z,73.73
2019-05-23T17:50:41.630Z,72.80
2019-05-23T17:53:11.981Z,73.53
2019-05-23T17:55:41.661Z,74.37
2019-05-23T17:58:11.348Z,75.97
2019-05-23T18:00:47.118Z,71.33
2019-05-23T18:03:17.553Z,72.60
2019-05-23T18:05:48.818Z,73.50
2019-05-23T18:08:19.560Z,77.43
2019-05-23T18:10:49.619Z,83.07
2019-05-23T18:13:19.771Z,75.83
2019-05-23T18:15:50.096Z,74.77
2019-05-23T18:18:39.531Z,73.87
2019-05-23T18:21:10.487Z,75.83
2019-05-23T18:23:40.933Z,73.00
2019-05-23T18:26:11.313Z,73.47
2019-05-23T18:28:43.922Z,72.20
2019-05-23T18:31:21.981Z,72.17
2019-05-23T18:33:51.948Z,73.73
2019-05-23T18:36:22.241Z,74.13
2019-05-23T18:38:53.420Z,71.83
2019-05-23T18:41:23.575Z,69.93
2019-05-23T18:43:55.011Z,72.67
2019-05-23T18:46:29.875Z,71.33
2019-05-23T18:49:00.722Z,71.10
2019-05-23T18:51:30.987Z,71.93
2019-05-23T18:54:01.141Z,69.90
2019-05-23T18:56:31.386Z,70.93
2019-05-23T18:59:02.039Z,70.30
2019-05-23T19:01:32.809Z,71.77
2019-05-23T19:04:02.937Z,65.60
2019-05-23T19:06:33.694Z,69.27
2019-05-23T19:09:04.998Z,68.63
2019-05-23T19:11:35.154Z,68.20
2019-05-23T19:14:05.310Z,67.03
2019-05-23T19:16:35.000Z,69.33
2019-05-23T19:19:05.333Z,67.10
2019-05-23T19:21:35.719Z,66.33
2019-05-23T19:24:06.380Z,67.43
2019-05-23T19:26:36.821Z,65.73
2019-05-23T19:29:07.990Z,69.53
2019-05-23T19:31:38.242Z,67.10
2019-05-23T19:34:08.395Z,66.07
2019-05-23T19:36:39.540Z,65.60
2019-05-23T19:39:09.941Z,66.40
2019-05-23T19:41:41.491Z,65.97
2019-05-23T19:44:12.676Z,66.27
2019-05-23T19:46:42.434Z,62.87
2019-05-23T19:49:13.867Z,67.27
2019-05-23T19:51:43.534Z,68.07
2019-05-23T19:54:13.526Z,69.33
2019-05-23T19:56:43.488Z,68.10
2019-05-23T19:59:14.062Z,66.83
2019-05-23T20:01:58.743Z,64.27
2019-05-23T20:04:31.463Z,64.30
2019-05-23T20:07:01.941Z,68.90
2019-05-23T20:09:32.131Z,63.73
2019-05-23T20:12:02.967Z,65.63
2019-05-23T20:14:32.944Z,63.23
2019-05-23T20:17:02.773Z,64.73
2019-05-23T20:19:32.513Z,66.83
2019-05-23T20:22:02.195Z,64.43
2019-05-23T20:24:32.140Z,63.53
2019-05-23T20:27:03.823Z,64.90
2019-05-23T20:29:34.778Z,65.20
2019-05-23T20:32:05.921Z,63.63
2019-05-23T20:34:35.953Z,62.40
2019-05-23T20:37:05.967Z,66.80
2019-05-23T20:39:36.027Z,61.60
2019-05-23T20:42:11.611Z,64.00
2019-05-23T20:44:37.894Z,62.63
2019-05-23T20:47:08.595Z,65.23
2019-05-23T20:49:38.650Z,63.43
2019-05-23T20:52:08.345Z,62.80
2019-05-23T20:54:38.504Z,62.33
2019-05-23T20:57:08.762Z,63.13
2019-05-23T20:59:41.038Z,62.13
2019-05-23T21:02:11.203Z,62.07
2019-05-23T21:04:41.420Z,63.87
2019-05-23T21:07:11.777Z,61.27
2019-05-23T21:09:41.539Z,62.73
2019-05-23T21:12:28.312Z,61.93
2019-05-23T21:14:43.092Z,61.90
2019-05-23T21:17:12.795Z,64.77
2019-05-23T21:19:42.487Z,59.37
2019-05-23T21:22:12.202Z,59.67
2019-05-23T21:24:41.977Z,62.30
2019-05-23T21:27:13.272Z,60.00
2019-05-23T21:29:43.040Z,65.97
2019-05-23T21:32:13.130Z,63.33
2019-05-23T21:34:42.875Z,60.03
2019-05-23T21:37:12.919Z,58.33
2019-05-23T21:39:42.613Z,61.70
2019-05-23T21:42:12.367Z,61.40
2019-05-23T21:44:42.049Z,61.00
2019-05-23T21:47:12.012Z,60.53
2019-05-23T21:49:41.877Z,60.33
2019-05-23T21:52:12.432Z,58.17
2019-05-23T21:54:42.222Z,58.90
2019-05-23T21:57:16.086Z,60.30
2019-05-23T21:59:44.568Z,62.07
2019-05-23T22:02:20.309Z,60.57
2019-05-23T22:04:51.934Z,61.90
2019-05-23T22:07:21.672Z,57.50
2019-05-23T22:09:51.409Z,59.90
2019-05-23T22:12:21.062Z,58.97
2019-05-23T22:14:51.822Z,62.60
2019-05-23T22:17:23.465Z,59.03
2019-05-23T22:19:53.521Z,58.37
2019-05-23T22:22:24.386Z,56.80
2019-05-23T22:24:54.396Z,58.67
2019-05-23T22:27:24.323Z,62.40
2019-05-23T22:29:54.018Z,60.70
2019-05-23T22:32:25.618Z,59.03
2019-05-23T22:34:56.954Z,58.30
2019-05-23T22:37:26.927Z,61.87
2019-05-23T22:39:56.601Z,62.40
2019-05-23T22:42:26.736Z,57.63
2019-05-23T22:44:57.978Z,58.33
2019-05-23T22:47:31.826Z,63.80
2019-05-23T22:50:01.682Z,60.87
2019-05-23T22:52:31.373Z,63.73
2019-05-23T22:55:01.032Z,62.90
2019-05-23T22:57:30.717Z,61.93
2019-05-23T23:00:00.392Z,65.63
2019-05-23T23:02:30.124Z,59.97
2019-05-23T23:04:59.819Z,62.93
2019-05-23T23:07:29.865Z,63.60
2019-05-23T23:10:00.035Z,60.40
2019-05-23T23:12:30.098Z,61.30
2019-05-23T23:14:59.864Z,58.50
2019-05-23T23:17:30.720Z,59.07
2019-05-23T23:20:00.377Z,61.07
2019-05-23T23:22:30.088Z,57.93
2019-05-23T23:24:59.779Z,56.13
2019-05-23T23:27:29.724Z,58.67
2019-05-23T23:29:59.440Z,58.13
2019-05-23T23:32:29.291Z,57.70
2019-05-23T23:34:58.987Z,57.87
2019-05-23T23:37:28.672Z,59.70
2019-05-23T23:39:59.566Z,58.10
2019-05-23T23:42:29.234Z,60.30
2019-05-23T23:45:16.618Z,61.50
2019-05-23T23:48:03.963Z,59.33
2019-05-23T23:50:51.353Z,56.80
2019-05-23T23:53:40.211Z,59.00
2019-05-23T23:56:28.269Z,59.23
2019-05-23T23:58:58.638Z,59.00
